Etusivu
METAR-TAF:

METAR-TAF

Lentoasemat :

Pjongjang, Pohjois-Korea

Sunanin kansainvälinen lentoasema

Leveyspiiri: 39-02N, Pituuspiiri: 125-47E, korkeus merenpinnasta: 36 m

METAR: puuttuu

Aika: 20:00 (11:30 UTC)

Sääennuste

Tämä raportti tehtiin 7 tuntia ja 0 minuuttia sitten, kello 04.30 UTC
Ennuste voimassa 19. päivästä klo 06 UTC - 20. päivään klo 06 UTC
Tuuli 8 kn lännestä/lounaasta
Näkyvyys 10 km tai enemmän
ei pilviä alle 1500 m:ssä eikä cumulonimbus-pilviä
Ajoittain
19. päivästä klo 18 UTC - 19. päivään klo 24 UTC
Näkyvyys: 2000 m
utua

TAF: ZKPY 190430Z 1906/2006 24004MPS CAVOK TEMPO 1918/1924 2000 BR TX20/2005Z TN05/1922Z

Säähavainnot ja -ennusteet yli 4000 lentoasemalta (METAR- ja TAF-raportit).

Käytössä olevat sääasemat on merkitty karttaan keltaisilla ja punaisilla pisteillä.

Aseta hiiri pisteen päälle nähdäksesi sääaseman nimen.

Klikkaa sitten nähdäksesi säähavainnot ja -ennusteet.

Kartan vaihtaminen: klikkaa mustalla rastilla varustettuja vihreitä pisteitä, niin voit zoomata sisään; viivalla varustettua vihreää pistettä, niin voit zoomata ulos tai vihreitä nuolia, niin pääset viereisille kartoille.


METAR-TAF: